Time;durP1;ratioP1;P1;durP2;ratioP2;P2;SDS_P1;SDS_P2;PMS_P1;PMS_P2;Temp;Humidity;BMP_temperature;BMP_pressure;BME280_temperature;BME280_humidity;BME280_pressure;Samples;Min_cycle;Max_cycle;Signal;HPM_P1;HPM_P2
2022/12/18 00:02:11;;;;;;;37.43;13.80;;;;;;;-5.75;84.73;102756.75;5026480;28;20128;-76
2022/12/18 00:04:36;;;;;;;32.43;13.73;;;;;;;-5.76;84.33;102762.59;5028481;28;20037;-77
2022/12/18 00:07:01;;;;;;;32.47;13.27;;;;;;;-5.81;84.28;102756.31;5010424;28;20408;-77
2022/12/18 00:09:26;;;;;;;35.50;13.37;;;;;;;-5.86;84.03;102765.22;5028670;28;20086;-77
2022/12/18 00:11:52;;;;;;;33.67;13.00;;;;;;;-5.92;84.03;102763.16;5026546;28;20075;-77
2022/12/18 00:14:17;;;;;;;36.00;13.80;;;;;;;-5.95;83.96;102765.44;5026885;28;20603;-77
2022/12/18 00:16:44;;;;;;;37.47;13.00;;;;;;;-5.97;84.14;102774.59;5027620;28;20127;-76
2022/12/18 00:19:10;;;;;;;31.60;12.23;;;;;;;-6.02;84.13;102776.81;5027831;28;20141;-77
2022/12/18 00:21:35;;;;;;;31.87;11.87;;;;;;;-6.06;84.13;102773.97;5027602;28;20527;-78
2022/12/18 00:24:01;;;;;;;32.60;12.93;;;;;;;-6.07;84.27;102755.31;5027870;28;20056;-78
2022/12/18 00:26:30;;;;;;;33.80;12.50;;;;;;;-6.07;84.35;102757.00;5028065;28;20436;-77
2022/12/18 00:29:01;;;;;;;37.17;13.13;;;;;;;-6.11;84.43;102749.16;5028472;28;20021;-77
2022/12/18 00:31:27;;;;;;;38.25;13.35;;;;;;;-6.14;83.92;102751.47;5025725;28;20413;-77
2022/12/18 00:33:55;;;;;;;41.23;15.77;;;;;;;-6.15;84.35;102748.81;5036838;28;20488;-77
2022/12/18 00:36:25;;;;;;;38.57;15.60;;;;;;;-6.16;84.40;102753.00;5033081;28;20460;-77
2022/12/18 00:38:51;;;;;;;41.77;14.13;;;;;;;-6.15;83.60;102756.44;5033646;28;20024;-78
2022/12/18 00:42:55;;;;;;;38.07;14.30;;;;;;;-6.15;84.43;102754.75;5033990;28;20030;-78
2022/12/18 00:44:03;;;;;;;38.73;15.30;;;;;;;-6.20;83.60;102750.13;5027804;28;20025;-78
2022/12/18 00:46:29;;;;;;;36.40;12.40;;;;;;;-6.20;83.72;102745.06;5022881;28;20097;-77
2022/12/18 00:48:54;;;;;;;37.17;14.27;;;;;;;-6.25;84.09;102750.66;5034354;28;20025;-77
2022/12/18 00:51:20;;;;;;;36.60;14.23;;;;;;;-6.28;83.75;102758.03;5032315;28;20025;-77
2022/12/18 00:53:45;;;;;;;38.30;13.57;;;;;;;-6.30;83.46;102759.56;5032552;28;20031;-77
2022/12/18 00:56:10;;;;;;;32.73;11.53;;;;;;;-6.28;84.24;102758.03;5018457;28;20370;-78
2022/12/18 00:58:36;;;;;;;36.90;14.03;;;;;;;-6.32;83.94;102752.63;5020076;28;20136;-78
2022/12/18 01:01:04;;;;;;;35.33;14.03;;;;;;;-6.37;83.72;102751.41;5029449;28;20496;-77
2022/12/18 01:03:29;;;;;;;37.60;13.67;;;;;;;-6.40;83.72;102752.06;5032595;28;20029;-77
2022/12/18 01:05:54;;;;;;;32.47;12.77;;;;;;;-6.40;83.54;102752.06;5028524;28;20026;-77
2022/12/18 01:08:19;;;;;;;35.07;13.07;;;;;;;-6.43;83.39;102756.88;5030919;28;20021;-77
2022/12/18 01:10:45;;;;;;;33.73;14.33;;;;;;;-6.43;84.09;102755.25;5032823;28;20200;-77
2022/12/18 01:13:10;;;;;;;34.90;13.13;;;;;;;-6.47;83.66;102745.66;5033504;28;20539;-77
2022/12/18 01:15:35;;;;;;;39.70;15.50;;;;;;;-6.49;83.04;102761.50;5032506;28;20013;-77
2022/12/18 01:18:00;;;;;;;34.73;13.73;;;;;;;-6.54;83.39;102767.88;5031796;28;20422;-77
2022/12/18 01:20:26;;;;;;;37.80;13.20;;;;;;;-6.56;83.47;102771.16;5031744;28;20076;-77
2022/12/18 01:22:51;;;;;;;32.30;11.73;;;;;;;-6.56;83.75;102778.75;5018942;28;20033;-77
2022/12/18 01:25:16;;;;;;;32.83;12.53;;;;;;;-6.58;83.96;102782.81;5024075;28;20037;-78
2022/12/18 01:27:42;;;;;;;34.70;14.40;;;;;;;-6.62;83.36;102774.88;5029989;28;20063;-77
2022/12/18 01:30:07;;;;;;;29.83;11.77;;;;;;;-6.63;83.32;102773.13;5030088;28;20513;-77
2022/12/18 01:32:33;;;;;;;33.30;14.20;;;;;;;-6.69;82.97;102776.06;5012524;28;20034;-77
2022/12/18 01:34:58;;;;;;;32.33;13.43;;;;;;;-6.75;82.80;102768.91;5029366;28;20037;-77
2022/12/18 01:37:24;;;;;;;29.10;10.90;;;;;;;-6.74;83.56;102774.84;5032993;28;20120;-77
2022/12/18 01:39:49;;;;;;;33.87;12.77;;;;;;;-6.74;83.69;102764.72;5015827;28;20452;-77
2022/12/18 01:42:15;;;;;;;33.77;12.53;;;;;;;-6.77;83.58;102756.88;5030184;28;20060;-77
2022/12/18 01:44:57;;;;;;;37.63;14.03;;;;;;;-6.77;83.55;102754.34;5014124;28;20080;-77
2022/12/18 01:47:31;;;;;;;;;;;;;;;-6.76;83.14;102756.09;5013948;28;20382;-77
2022/12/18 01:50:00;;;;;;;37.73;13.03;;;;;;;-6.80;83.03;102752.47;5013812;28;19969;-77
2022/12/18 01:52:32;;;;;;;26.67;10.23;;;;;;;-6.80;83.21;102749.03;5013384;28;20382;-78
2022/12/18 01:54:58;;;;;;;37.63;14.32;;;;;;;-6.80;83.69;102749.03;5023738;28;20037;-77
2022/12/18 01:57:25;;;;;;;36.80;12.60;;;;;;;-6.81;83.30;102748.19;5030591;28;20083;-78
2022/12/18 01:59:53;;;;;;;35.07;13.53;;;;;;;-6.82;83.64;102748.03;5025169;28;20101;-77
2022/12/18 02:02:20;;;;;;;32.73;12.60;;;;;;;-6.80;83.60;102749.03;5019579;28;20152;-77
2022/12/18 02:04:46;;;;;;;34.03;13.47;;;;;;;-6.80;83.08;102757.53;5023799;28;20110;-77
2022/12/18 02:07:16;;;;;;;33.27;12.47;;;;;;;-6.81;83.64;102757.41;5014406;28;20053;-77
2022/12/18 02:09:50;;;;;;;31.47;12.93;;;;;;;-6.83;83.64;102753.91;5024863;28;20036;-77
2022/12/18 02:12:21;;;;;;;35.70;14.43;;;;;;;-6.84;83.83;102747.06;5030950;28;20025;-77
2022/12/18 02:14:59;;;;;;;32.28;13.10;;;;;;;-6.86;84.08;102740.25;5028550;28;20025;-77
2022/12/18 02:17:39;;;;;;;38.93;14.60;;;;;;;-6.89;83.00;102742.53;5016330;28;20068;-77
2022/12/18 02:20:13;;;;;;;34.20;13.03;;;;;;;-6.93;83.38;102745.59;5026699;28;20034;-77
2022/12/18 02:23:01;;;;;;;32.00;12.67;;;;;;;-6.93;82.68;102747.25;5028722;28;20044;-77
2022/12/18 02:25:59;;;;;;;24.13;9.23;;;;;;;-6.94;82.92;102746.34;5031733;28;20059;-77
2022/12/18 02:28:30;;;;;;;33.90;11.83;;;;;;;-6.95;83.08;102744.56;5020914;28;20136;-77
2022/12/18 02:30:59;;;;;;;26.25;11.20;;;;;;;-6.95;83.25;102748.78;5027635;28;20508;-77
2022/12/18 02:33:26;;;;;;;28.33;10.53;;;;;;;-6.96;83.65;102752.94;5022362;28;20088;-77
2022/12/18 02:35:55;;;;;;;33.67;12.77;;;;;;;-7.02;83.10;102748.28;5017368;28;20021;-77
2022/12/18 02:38:20;;;;;;;32.33;12.63;;;;;;;-7.02;83.65;102752.47;5027536;28;20057;-77
2022/12/18 02:40:47;;;;;;;32.80;12.67;;;;;;;-7.06;82.58;102753.88;5036791;28;20056;-77
2022/12/18 02:43:15;;;;;;;35.10;13.77;;;;;;;-7.09;83.02;102745.16;5034603;28;20017;-77
2022/12/18 02:46:00;;;;;;;29.47;12.70;;;;;;;-7.11;82.99;102740.00;5034348;28;20251;-77
2022/12/18 02:48:34;;;;;;;29.30;12.20;;;;;;;-7.12;82.95;102737.34;5036607;28;20030;-77
2022/12/18 02:51:29;;;;;;;30.67;11.80;;;;;;;-7.12;83.36;102730.66;5035444;28;20075;-77
2022/12/18 02:54:20;;;;;;;34.03;13.10;;;;;;;-7.13;83.53;102725.44;5035645;28;20033;-77
2022/12/18 02:56:52;;;;;;;31.15;12.20;;;;;;;-7.14;83.26;102724.59;5033522;28;20032;-77
2022/12/18 02:59:23;;;;;;;25.25;11.13;;;;;;;-7.16;83.58;102709.28;5036486;28;20108;-77
2022/12/18 03:01:54;;;;;;;30.60;12.23;;;;;;;-7.16;83.10;102708.41;5020019;28;20080;-77
2022/12/18 03:04:24;;;;;;;24.60;10.95;;;;;;;-7.14;83.24;102709.41;5032684;28;20083;-77
2022/12/18 03:06:55;;;;;;;31.00;12.80;;;;;;;-7.16;83.49;102714.31;5029024;28;20022;-77
2022/12/18 03:09:27;;;;;;;27.20;11.20;;;;;;;-7.16;83.52;102714.31;5022159;28;20025;-77
2022/12/18 03:14:45;;;;;;;23.90;10.37;;;;;;;-7.17;83.24;102717.63;5023760;28;20059;-77
2022/12/18 03:17:15;;;;;;;23.00;10.03;;;;;;;-7.17;83.32;102717.63;5032127;28;20644;-77
2022/12/18 03:19:43;;;;;;;24.67;10.60;;;;;;;-7.17;83.24;102712.56;5032179;28;20040;-77
2022/12/18 03:22:09;;;;;;;22.47;10.27;;;;;;;-7.17;83.03;102711.69;5018729;28;20064;-77
2022/12/18 03:24:38;;;;;;;26.77;10.93;;;;;;;-7.17;82.85;102714.22;5031686;28;20092;-77
2022/12/18 03:27:08;;;;;;;25.73;10.67;;;;;;;-7.20;83.70;102713.97;5028698;28;20029;-77
2022/12/18 03:29:40;;;;;;;26.13;10.50;;;;;;;-7.22;83.75;102707.91;5010064;28;20092;-77
2022/12/18 03:32:10;;;;;;;23.37;10.03;;;;;;;-7.19;82.77;102714.13;5021783;28;20021;-77
2022/12/18 03:34:38;;;;;;;23.90;11.10;;;;;;;-7.19;82.97;102708.16;5021180;28;20075;-77
2022/12/18 03:37:05;;;;;;;28.37;11.90;;;;;;;-7.21;83.21;102712.22;5015942;28;20029;-77
2022/12/18 03:39:30;;;;;;;26.63;10.80;;;;;;;-7.20;83.39;102716.50;5028334;28;20546;-77
2022/12/18 03:42:08;;;;;;;26.37;11.13;;;;;;;-7.20;83.57;102707.28;5018869;28;20060;-77
2022/12/18 03:44:40;;;;;;;25.27;10.67;;;;;;;-7.20;83.51;102704.75;5022774;28;20025;-77
2022/12/18 03:47:19;;;;;;;27.17;11.33;;;;;;;-7.20;83.21;102699.72;5015752;28;20045;-77
2022/12/18 03:50:07;;;;;;;25.93;10.63;;;;;;;-7.21;83.06;102697.94;5014465;28;20102;-77
2022/12/18 03:52:46;;;;;;;25.10;10.37;;;;;;;-7.21;82.92;102692.88;5016731;28;20033;-77
2022/12/18 03:55:12;;;;;;;23.00;9.90;;;;;;;-7.20;83.19;102694.66;5029608;28;20080;-77
2022/12/18 03:57:39;;;;;;;25.33;11.27;;;;;;;-7.22;83.32;102688.59;5034973;28;20033;-77
2022/12/18 04:00:11;;;;;;;25.70;10.70;;;;;;;-7.23;83.63;102689.34;5021782;28;20037;-77
2022/12/18 04:02:40;;;;;;;27.13;11.30;;;;;;;-7.22;83.59;102686.06;5032760;28;20048;-77
2022/12/18 04:05:08;;;;;;;25.53;11.17;;;;;;;-7.20;83.57;102676.94;5025023;28;20041;-77
2022/12/18 04:07:35;;;;;;;27.13;10.53;;;;;;;-7.21;82.99;102677.72;5029261;28;20033;-77
2022/12/18 04:10:03;;;;;;;22.20;9.63;;;;;;;-7.20;83.49;102666.81;5025321;28;20450;-77
2022/12/18 04:12:29;;;;;;;24.53;10.10;;;;;;;-7.19;82.99;102671.13;5014063;28;20045;-77
2022/12/18 04:14:55;;;;;;;24.20;9.90;;;;;;;-7.22;84.01;102655.72;5021452;28;20037;-77
2022/12/18 04:17:21;;;;;;;21.33;9.70;;;;;;;-7.20;83.53;102663.41;5031184;28;20039;-77
2022/12/18 04:19:46;;;;;;;19.33;8.30;;;;;;;-7.19;83.14;102652.53;5026373;28;20551;-77
2022/12/18 04:22:12;;;;;;;20.97;8.77;;;;;;;-7.19;83.55;102653.41;5026032;28;20034;-77
2022/12/18 04:24:37;;;;;;;20.20;9.30;;;;;;;-7.19;83.10;102650.88;5030443;28;20108;-77
2022/12/18 04:27:03;;;;;;;20.37;9.77;;;;;;;-7.19;83.18;102647.47;5013704;28;20477;-77
2022/12/18 04:29:29;;;;;;;20.03;9.17;;;;;;;-7.19;83.32;102647.47;5029778;28;20041;-77
2022/12/18 04:31:54;;;;;;;22.93;9.60;;;;;;;-7.18;83.43;102641.63;5034014;28;20052;-77
2022/12/18 04:34:20;;;;;;;23.03;10.00;;;;;;;-7.18;83.34;102646.69;5030639;28;20243;-77
2022/12/18 04:36:45;;;;;;;21.77;9.60;;;;;;;-7.17;83.74;102648.47;5030317;28;20042;-77
2022/12/18 04:39:10;;;;;;;23.73;10.13;;;;;;;-7.17;83.54;102645.94;5028446;28;20029;-77
2022/12/18 04:41:35;;;;;;;21.10;8.97;;;;;;;-7.19;83.58;102655.94;5028745;28;20452;-77
2022/12/18 04:44:01;;;;;;;20.10;8.90;;;;;;;-7.19;83.23;102652.53;5030070;28;20140;-77
2022/12/18 04:46:26;;;;;;;20.43;8.10;;;;;;;-7.17;83.51;102661.97;5027656;28;20434;-77
2022/12/18 04:48:51;;;;;;;19.93;8.13;;;;;;;-7.19;83.96;102658.47;5030503;28;20033;-77
2022/12/18 04:51:17;;;;;;;23.50;9.63;;;;;;;-7.18;83.82;102665.31;5025880;28;20041;-77
2022/12/18 04:53:42;;;;;;;18.60;8.13;;;;;;;-7.17;83.74;102668.69;5024509;28;20025;-77
2022/12/18 04:56:13;;;;;;;18.83;8.10;;;;;;;-7.14;83.78;102668.03;5029423;28;20603;-77
2022/12/18 04:58:40;;;;;;;20.42;8.48;;;;;;;-7.16;83.51;102663.75;5012682;28;20492;-77
2022/12/18 05:01:07;;;;;;;17.13;8.00;;;;;;;-7.14;84.18;102670.56;5027679;28;20057;-77
2022/12/18 05:03:32;;;;;;;20.37;8.73;;;;;;;-7.14;83.39;102676.53;5029136;28;20029;-77
2022/12/18 05:05:58;;;;;;;20.63;9.00;;;;;;;-7.13;83.83;102672.34;5028184;28;20070;-77
2022/12/18 05:08:23;;;;;;;19.73;9.23;;;;;;;-7.12;83.31;102689.28;5029083;28;20757;-77
2022/12/18 05:10:48;;;;;;;17.67;8.20;;;;;;;-7.12;83.93;102694.34;5028210;28;20037;-77
2022/12/18 05:13:14;;;;;;;18.33;7.97;;;;;;;-7.11;83.74;102699.53;5025945;28;20361;-77
2022/12/18 05:15:39;;;;;;;19.00;9.10;;;;;;;-7.11;84.01;102713.81;5027055;28;20026;-77
2022/12/18 05:18:04;;;;;;;18.43;8.90;;;;;;;-7.09;84.00;102704.69;5027167;28;20028;-77
2022/12/18 05:20:30;;;;;;;17.93;7.20;;;;;;;-7.09;83.72;102709.75;5027702;28;20044;-77
2022/12/18 05:22:56;;;;;;;20.30;8.97;;;;;;;-7.09;83.48;102709.75;5028566;28;20030;-77
2022/12/18 05:25:22;;;;;;;17.43;7.83;;;;;;;-7.10;83.66;102707.97;5028608;28;20036;-77
2022/12/18 05:27:48;;;;;;;16.03;7.50;;;;;;;-7.09;83.12;102704.69;5027301;28;20029;-77
2022/12/18 05:30:13;;;;;;;18.57;8.37;;;;;;;-7.12;83.99;102701.91;5027149;28;20559;-77
2022/12/18 05:32:39;;;;;;;20.70;8.87;;;;;;;-7.11;83.37;102696.09;5027593;28;20049;-77
2022/12/18 05:35:06;;;;;;;21.20;8.30;;;;;;;-7.13;83.47;102690.94;5025023;28;20025;-77
2022/12/18 05:37:31;;;;;;;19.50;8.13;;;;;;;-7.12;83.35;102684.22;5027459;28;20032;-77
2022/12/18 05:39:56;;;;;;;17.03;7.57;;;;;;;-7.14;83.06;102681.59;5028989;28;20041;-77
2022/12/18 05:42:22;;;;;;;21.70;9.63;;;;;;;-7.16;83.84;102686.50;5027084;28;20041;-77
2022/12/18 05:44:47;;;;;;;18.07;8.40;;;;;;;-7.13;83.82;102690.94;5029132;28;20044;-77
2022/12/18 05:47:13;;;;;;;18.63;7.77;;;;;;;-7.13;83.87;102680.81;5028001;28;20539;-77
2022/12/18 05:49:38;;;;;;;19.37;8.30;;;;;;;-7.14;83.33;102671.47;5029927;28;20108;-77
2022/12/18 05:52:03;;;;;;;17.30;8.03;;;;;;;-7.14;83.67;102681.59;5029226;28;20071;-77
2022/12/18 05:54:29;;;;;;;19.97;9.17;;;;;;;-7.15;83.71;102669.69;5026846;28;20032;-77
2022/12/18 05:56:54;;;;;;;15.20;7.33;;;;;;;-7.14;83.05;102674.00;5024892;28;20461;-77
2022/12/18 05:59:20;;;;;;;16.07;7.90;;;;;;;-7.14;83.49;102668.03;5027672;28;20171;-77
2022/12/18 06:01:45;;;;;;;16.43;8.50;;;;;;;-7.13;83.46;102664.75;5028908;28;20040;-77
2022/12/18 06:04:11;;;;;;;18.97;8.87;;;;;;;-7.13;83.44;102663.13;5028072;28;20037;-77
2022/12/18 06:06:36;;;;;;;17.87;7.80;;;;;;;-7.14;83.57;102652.88;5028599;28;20029;-77
2022/12/18 06:09:07;;;;;;;21.90;9.70;;;;;;;-7.16;83.85;102652.75;5011327;28;20091;-77
2022/12/18 06:11:33;;;;;;;17.52;8.18;;;;;;;-7.16;83.32;102653.63;5007177;28;20064;-77
2022/12/18 06:13:59;;;;;;;15.07;7.23;;;;;;;-7.15;83.87;102652.00;5027417;28;20060;-77
2022/12/18 06:16:24;;;;;;;18.27;7.87;;;;;;;-7.16;83.80;102646.03;5028235;28;20022;-77
2022/12/18 06:18:49;;;;;;;18.50;8.50;;;;;;;-7.19;83.51;102643.31;5028296;28;20476;-77
2022/12/18 06:21:14;;;;;;;17.83;8.00;;;;;;;-7.19;83.61;102650.88;5025310;28;20037;-77
2022/12/18 06:23:40;;;;;;;15.70;7.20;;;;;;;-7.20;83.36;102648.22;5028459;28;20040;-77
2022/12/18 06:26:07;;;;;;;16.07;7.33;;;;;;;-7.17;83.59;102648.47;5027649;28;20067;-77
2022/12/18 06:28:33;;;;;;;19.00;7.80;;;;;;;-7.20;83.61;102633.94;5027619;28;20060;-77
2022/12/18 06:30:58;;;;;;;19.53;8.87;;;;;;;-7.20;83.39;102654.19;5027746;28;20069;-77
2022/12/18 06:33:27;;;;;;;19.07;8.47;;;;;;;-7.21;83.27;102656.56;5021360;28;20032;-77
2022/12/18 06:35:53;;;;;;;17.23;7.83;;;;;;;-7.22;83.92;102648.13;5031396;28;20059;-77
2022/12/18 06:38:18;;;;;;;19.13;9.27;;;;;;;-7.20;83.25;102649.13;5029267;28;20057;-77
2022/12/18 06:40:43;;;;;;;15.73;7.30;;;;;;;-7.21;83.19;102644.81;5023746;28;20029;-77
2022/12/18 06:43:09;;;;;;;19.67;8.47;;;;;;;-7.19;83.37;102647.47;5014328;28;20536;-77
2022/12/18 06:45:34;;;;;;;18.17;8.47;;;;;;;-7.23;83.51;102651.41;5024081;28;20032;-77
2022/12/18 06:47:59;;;;;;;20.30;8.67;;;;;;;-7.24;83.42;102639.53;5032459;28;20029;-77
2022/12/18 06:50:24;;;;;;;16.33;7.07;;;;;;;-7.23;83.51;102642.94;5030915;28;20115;-77
2022/12/18 06:52:50;;;;;;;18.77;8.63;;;;;;;-7.25;83.33;102641.94;5016711;28;20029;-77
2022/12/18 06:55:15;;;;;;;16.63;7.67;;;;;;;-7.28;83.52;102637.53;5012723;28;20413;-77
2022/12/18 06:57:40;;;;;;;19.57;8.27;;;;;;;-7.27;83.77;102638.44;5013675;28;20034;-77
2022/12/18 07:00:07;;;;;;;16.83;7.57;;;;;;;-7.27;83.23;102636.75;5016282;28;20029;-77
2022/12/18 07:02:32;;;;;;;18.57;8.93;;;;;;;-7.26;83.95;102623.34;5029254;28;20029;-77
2022/12/18 07:04:58;;;;;;;19.13;8.23;;;;;;;-7.25;84.10;102635.25;5018999;28;20029;-77
2022/12/18 07:07:23;;;;;;;18.80;8.00;;;;;;;-7.22;83.89;102630.41;5018922;28;20116;-77
2022/12/18 07:09:50;;;;;;;22.50;8.73;;;;;;;-7.24;84.25;102629.41;5022802;28;20108;-77
2022/12/18 07:12:15;;;;;;;22.57;9.03;;;;;;;-7.22;83.92;102627.00;5021125;28;20465;-78
2022/12/18 07:14:40;;;;;;;18.07;7.60;;;;;;;-7.20;84.39;102631.41;5019782;28;20040;-77
2022/12/18 07:17:06;;;;;;;19.47;8.73;;;;;;;-7.23;84.06;102623.59;5001910;28;21282;-77
2022/12/18 07:19:31;;;;;;;18.63;8.00;;;;;;;-7.23;83.39;102618.53;5020849;28;20029;-76
2022/12/18 07:21:56;;;;;;;17.10;8.23;;;;;;;-7.21;84.16;102613.56;5002187;28;20026;-76
2022/12/18 07:24:21;;;;;;;21.33;8.60;;;;;;;-7.19;83.64;102610.41;5024436;28;20061;-77
2022/12/18 07:26:47;;;;;;;19.90;8.27;;;;;;;-7.18;84.25;102607.13;5024935;28;20057;-77
2022/12/18 07:29:12;;;;;;;17.53;8.57;;;;;;;-7.16;83.72;102605.56;5024238;28;20049;-77
2022/12/18 07:31:38;;;;;;;16.57;7.70;;;;;;;-7.14;83.96;102605.69;5024192;28;20473;-77
2022/12/18 07:34:03;;;;;;;16.93;7.43;;;;;;;-7.11;83.90;102605.03;5025340;28;20072;-77
2022/12/18 07:36:29;;;;;;;17.13;8.20;;;;;;;-7.10;83.85;102596.69;5023490;28;20715;-77
2022/12/18 07:38:54;;;;;;;25.00;9.60;;;;;;;-7.07;84.61;102597.78;5005081;28;20033;-77
2022/12/18 07:41:20;;;;;;;15.93;7.73;;;;;;;-7.04;84.67;102592.97;5024690;28;20384;-76
2022/12/18 07:43:46;;;;;;;19.30;8.77;;;;;;;-7.05;84.17;102590.34;5026656;28;20135;-76
2022/12/18 07:46:13;;;;;;;15.87;7.10;;;;;;;-7.03;84.14;102589.66;5024804;28;20472;-76
2022/12/18 07:48:40;;;;;;;18.37;8.47;;;;;;;-7.00;84.53;102586.47;5024991;28;20461;-76
2022/12/18 07:51:07;;;;;;;18.07;8.43;;;;;;;-7.00;84.15;102568.75;5024586;28;20054;-77
2022/12/18 07:53:34;;;;;;;21.40;9.33;;;;;;;-6.97;84.91;102570.66;5024956;28;20112;-76
2022/12/18 07:56:11;;;;;;;18.90;8.63;;;;;;;-6.95;83.96;102559.88;5024269;28;20052;-77
2022/12/18 07:58:37;;;;;;;19.37;8.03;;;;;;;-6.93;84.38;102553.28;5024643;28;20029;-77
2022/12/18 08:01:07;;;;;;;19.23;9.47;;;;;;;-6.89;84.17;102545.16;5024040;28;20056;-76
2022/12/18 08:03:33;;;;;;;19.43;8.90;;;;;;;-6.84;84.46;102544.63;5027505;28;20127;-77
2022/12/18 08:06:04;;;;;;;21.47;9.23;;;;;;;-6.81;84.35;102542.28;5025697;28;20043;-77
2022/12/18 08:08:30;;;;;;;17.80;7.60;;;;;;;-6.79;84.03;102543.28;5021620;28;20056;-76
2022/12/18 08:10:56;;;;;;;20.53;9.90;;;;;;;-6.76;84.71;102544.41;5024805;28;20131;-77
2022/12/18 08:13:21;;;;;;;20.70;9.13;;;;;;;-6.71;84.46;102547.28;5027233;28;20464;-85
2022/12/18 08:16:01;;;;;;;18.80;8.10;;;;;;;-6.65;84.59;102552.75;5023930;28;20476;-77
2022/12/18 08:18:27;;;;;;;17.67;7.33;;;;;;;-6.60;84.81;102545.50;5024829;28;20088;-77
2022/12/18 08:20:54;;;;;;;20.07;9.27;;;;;;;-6.57;85.28;102563.44;5024083;28;20405;-76
2022/12/18 08:23:19;;;;;;;21.13;9.50;;;;;;;-6.53;84.71;102557.81;5025388;28;20065;-77
2022/12/18 08:25:44;;;;;;;17.47;7.80;;;;;;;-6.48;85.37;102558.16;5023567;28;20116;-76
2022/12/18 08:28:10;;;;;;;18.43;8.20;;;;;;;-6.44;84.59;102570.28;5025122;28;20033;-77
2022/12/18 08:30:35;;;;;;;17.00;8.57;;;;;;;-6.38;84.85;102567.28;5023985;28;20056;-77
2022/12/18 08:33:01;;;;;;;20.13;9.07;;;;;;;-6.34;84.78;102564.22;5024109;28;20033;-77
2022/12/18 08:35:26;;;;;;;20.90;9.13;;;;;;;-6.30;84.89;102567.06;5024727;28;20033;-76
2022/12/18 08:37:52;;;;;;;17.30;7.77;;;;;;;-6.26;85.35;102563.13;5025836;28;20032;-76
2022/12/18 08:40:18;;;;;;;18.57;8.20;;;;;;;-6.21;84.76;102564.31;5024305;28;20065;-76
2022/12/18 08:45:27;;;;;;;20.37;8.90;;;;;;;-6.14;84.87;102569.03;5024154;28;20048;-76
2022/12/18 08:47:52;;;;;;;16.40;7.53;;;;;;;-6.10;84.95;102565.97;5025269;28;20029;-76
2022/12/18 08:50:17;;;;;;;21.13;9.27;;;;;;;-6.07;84.88;102555.16;5023920;28;20137;-77
2022/12/18 08:52:43;;;;;;;18.73;8.77;;;;;;;-6.03;85.51;102539.41;5025316;28;20036;-76
2022/12/18 08:55:09;;;;;;;21.43;9.47;;;;;;;-5.97;85.24;102531.31;5024065;28;20120;-76
2022/12/18 08:57:34;;;;;;;20.67;9.37;;;;;;;-5.95;84.87;102525.56;5024664;28;20037;-76
2022/12/18 09:00:00;;;;;;;23.20;9.90;;;;;;;-5.90;85.50;102530.97;5024135;28;20045;-77
2022/12/18 09:02:25;;;;;;;19.90;8.50;;;;;;;-5.84;84.99;102525.44;5023475;28;20029;-76
2022/12/18 09:04:50;;;;;;;20.33;9.37;;;;;;;-5.79;85.51;102526.59;5023917;28;20080;-76
2022/12/18 09:07:15;;;;;;;20.70;9.20;;;;;;;-5.74;85.45;102525.28;5022842;28;20030;-77
2022/12/18 09:09:41;;;;;;;21.97;10.53;;;;;;;-5.68;85.33;102525.72;5024236;28;20428;-77
2022/12/18 09:12:06;;;;;;;21.80;9.50;;;;;;;-5.63;85.07;102534.50;5024357;28;20029;-77
2022/12/18 09:14:31;;;;;;;24.13;9.50;;;;;;;-5.57;85.13;102544.19;5024593;28;20099;-77
2022/12/18 09:16:56;;;;;;;21.23;10.03;;;;;;;-5.53;85.06;102530.91;5024934;28;20675;-76
2022/12/18 09:19:22;;;;;;;20.60;10.00;;;;;;;-5.46;84.93;102531.34;5024915;28;20037;-76
2022/12/18 09:21:47;;;;;;;22.17;10.23;;;;;;;-5.42;84.83;102529.09;5023252;28;20025;-76
2022/12/18 09:24:14;;;;;;;23.57;9.10;;;;;;;-5.35;84.77;102535.47;5023207;28;20119;-76
2022/12/18 09:26:39;;;;;;;19.83;9.90;;;;;;;-5.28;85.04;102544.38;5024763;28;20033;-77
2022/12/18 09:29:06;;;;;;;17.20;7.80;;;;;;;-5.24;84.83;102542.16;5024366;28;20039;-77
2022/12/18 09:31:32;;;;;;;20.73;9.43;;;;;;;-5.18;85.00;102549.28;5022956;28;20083;-77
2022/12/18 09:33:57;;;;;;;22.23;9.63;;;;;;;-5.13;85.03;102553.03;5023739;28;20404;-76
2022/12/18 09:36:22;;;;;;;20.53;8.53;;;;;;;-5.09;84.86;102552.44;5024116;28;20036;-77
2022/12/18 09:38:48;;;;;;;20.13;9.23;;;;;;;-5.03;84.92;102555.38;5023378;28;20388;-76
2022/12/18 09:41:31;;;;;;;20.00;9.53;;;;;;;-4.97;84.93;102544.75;5022926;28;20033;-76
2022/12/18 09:44:17;;;;;;;21.33;9.60;;;;;;;-4.91;84.79;102532.47;5023133;28;20062;-76
2022/12/18 09:46:51;;;;;;;19.17;8.87;;;;;;;-4.87;84.90;102525.91;5021743;28;20056;-76
2022/12/18 09:49:20;;;;;;;17.73;8.70;;;;;;;-4.81;84.47;102525.44;5022651;28;20041;-77
2022/12/18 09:51:52;;;;;;;22.17;10.30;;;;;;;-4.77;84.68;102512.16;5022151;28;20038;-76
2022/12/18 09:54:32;;;;;;;22.70;9.90;;;;;;;-4.73;84.36;102509.91;5023885;28;20042;-76
2022/12/18 09:56:58;;;;;;;21.90;10.23;;;;;;;-4.69;84.52;102494.88;5023729;28;20037;-77
2022/12/18 09:59:29;;;;;;;19.50;9.23;;;;;;;-4.62;84.66;102497.03;5021753;28;20029;-76
2022/12/18 10:01:55;;;;;;;20.75;10.13;;;;;;;-4.57;84.52;102493.09;5024691;28;20037;-76
2022/12/18 10:04:20;;;;;;;21.97;10.20;;;;;;;-4.53;84.32;102496.75;5023958;28;20068;-77
2022/12/18 10:07:01;;;;;;;21.97;10.27;;;;;;;-4.47;84.28;102486.94;5024482;28;20083;-76
2022/12/18 10:10:03;;;;;;;20.47;9.67;;;;;;;-4.39;84.12;102495.03;5023806;28;20022;-76
2022/12/18 10:12:38;;;;;;;20.67;8.70;;;;;;;-4.32;84.91;102490.44;5021854;28;20108;-76
2022/12/18 10:15:27;;;;;;;23.37;10.43;;;;;;;-4.24;84.31;102495.13;5022534;28;20029;-76
2022/12/18 10:18:14;;;;;;;21.53;9.50;;;;;;;-4.19;84.33;102497.16;5026006;28;20030;-76
2022/12/18 10:20:57;;;;;;;21.60;9.60;;;;;;;-4.15;84.53;102501.66;5023507;28;20508;-77
2022/12/18 10:23:44;;;;;;;21.13;9.33;;;;;;;-4.07;84.08;102503.78;5022144;28;20032;-76
2022/12/18 10:26:11;;;;;;;19.97;8.57;;;;;;;-4.02;83.91;102498.22;5024197;28;20033;-75
2022/12/18 10:28:39;;;;;;;18.70;8.53;;;;;;;-3.98;83.72;102489.09;5023848;28;20025;-76
2022/12/18 10:31:17;;;;;;;20.17;9.70;;;;;;;-3.92;84.03;102489.44;5023428;28;20069;-75
2022/12/18 10:33:43;;;;;;;20.07;9.40;;;;;;;-3.86;83.89;102494.91;5023261;28;20030;-74
2022/12/18 10:36:08;;;;;;;20.90;9.73;;;;;;;-3.80;83.83;102481.69;5022630;28;20294;-75
2022/12/18 10:38:34;;;;;;;21.27;9.60;;;;;;;-3.76;83.77;102476.00;5023176;28;20433;-76
2022/12/18 10:41:00;;;;;;;23.83;9.70;;;;;;;-3.68;83.46;102476.47;5023157;28;20443;-76
2022/12/18 10:43:34;;;;;;;19.80;9.00;;;;;;;-3.64;83.74;102462.25;5023127;28;20041;-76
2022/12/18 10:46:02;;;;;;;20.97;9.93;;;;;;;-3.59;83.49;102454.13;5021424;28;20029;-76
2022/12/18 10:48:29;;;;;;;20.60;9.63;;;;;;;-3.53;83.36;102454.47;5022400;28;20492;-76
2022/12/18 10:50:55;;;;;;;20.93;10.30;;;;;;;-3.49;82.87;102449.56;5025000;28;20445;-77
2022/12/18 10:53:25;;;;;;;24.07;10.73;;;;;;;-3.45;83.03;102446.41;5023520;28;20498;-77
2022/12/18 10:55:53;;;;;;;22.40;10.80;;;;;;;-3.39;83.11;102441.66;5022443;28;20493;-77
2022/12/18 10:58:29;;;;;;;19.17;8.97;;;;;;;-3.33;82.89;102431.84;5025299;28;20136;-77
2022/12/18 11:01:08;;;;;;;21.70;10.13;;;;;;;-3.29;82.56;102422.72;5027009;28;20033;-76
2022/12/18 11:03:44;;;;;;;20.53;10.13;;;;;;;-3.22;82.92;102419.72;5025368;28;20041;-77
2022/12/18 11:06:18;;;;;;;20.33;10.10;;;;;;;-3.20;82.84;102410.50;5026138;28;20113;-76
2022/12/18 11:08:57;;;;;;;21.47;10.20;;;;;;;-3.18;82.47;102411.47;5026989;28;20033;-76
2022/12/18 11:11:23;;;;;;;22.20;10.17;;;;;;;-3.15;81.82;102420.94;5025475;28;20111;-77
2022/12/18 11:13:55;;;;;;;21.70;10.13;;;;;;;-3.13;82.47;102415.16;5025316;28;20029;-76
2022/12/18 11:16:20;;;;;;;20.63;10.38;;;;;;;-3.09;82.31;102411.13;5025196;28;20100;-76
2022/12/18 11:18:46;;;;;;;21.80;10.40;;;;;;;-3.03;82.25;102419.09;5025820;28;20149;-76
2022/12/18 11:21:13;;;;;;;19.03;9.10;;;;;;;-3.00;82.01;102415.84;5024226;28;20637;-76
2022/12/18 11:23:48;;;;;;;23.97;10.93;;;;;;;-2.98;82.17;102420.22;5025970;28;20036;-76
2022/12/18 11:26:14;;;;;;;20.90;10.63;;;;;;;-2.94;81.97;102405.97;5027198;28;20044;-76